Rollingbay, Washington
Current Conditions -  °F | °C
As of 8:53 AM on Tuesday 21 Oct 2014 (Local Time) from KBFI Reporting Station
Broken Clouds Broken Clouds  
Wind Chill: 58°   Ceiling: 8000
Heat Index: 58°   Visibility: 10mi
Dew Point: 51°   Wind: 9mph
Humidity: 78%   Direction: 170°S
Pressure: 29.89"   Gusts: NA
Location:  47.66°N, 122.51°W
Report Text: KBFI 211553Z 17008KT 10SM BKN080 BKN095 14/11 A2989 RMK AO2 SLP122 T01440106
Loading
Personal Weather Stations






























Interactive Weather Map
Tropical Storm Tracking
New forecast layout! Learn more

10-Day Weather Forecast

Advertisements
Track Severe Weather on mobile